sensor_id;sensor_type;location;lat;lon;timestamp;pressure;altitude;pressure_sealevel;temperature;humidity
55460;BME280;41326;45.302;-122.946;2023-03-21T00:00:53;100378.67;;;18.36;51.42
55460;BME280;41326;45.302;-122.946;2023-03-21T00:03:20;100380.11;;;18.46;51.29
55460;BME280;41326;45.302;-122.946;2023-03-21T00:05:51;100383.67;;;18.59;51.11
55460;BME280;41326;45.302;-122.946;2023-03-21T00:08:22;100386.31;;;18.67;51.06
55460;BME280;41326;45.302;-122.946;2023-03-21T00:10:55;100387.52;;;18.77;50.88
55460;BME280;41326;45.302;-122.946;2023-03-21T00:13:22;100389.82;;;18.77;50.85
55460;BME280;41326;45.302;-122.946;2023-03-21T00:15:52;100389.50;;;18.77;50.88
55460;BME280;41326;45.302;-122.946;2023-03-21T00:18:22;100388.87;;;18.78;50.97
55460;BME280;41326;45.302;-122.946;2023-03-21T00:20:57;100389.43;;;18.83;50.88
55460;BME280;41326;45.302;-122.946;2023-03-21T00:23:23;100385.77;;;18.89;50.88
55460;BME280;41326;45.302;-122.946;2023-03-21T00:25:53;100386.47;;;18.93;50.96
55460;BME280;41326;45.302;-122.946;2023-03-21T00:28:23;100385.29;;;18.93;50.98
55460;BME280;41326;45.302;-122.946;2023-03-21T00:30:56;100382.83;;;18.90;51.09
55460;BME280;41326;45.302;-122.946;2023-03-21T00:33:24;100379.90;;;18.93;51.29
55460;BME280;41326;45.302;-122.946;2023-03-21T00:35:56;100379.67;;;19.01;51.30
55460;BME280;41326;45.302;-122.946;2023-03-21T00:38:26;100373.40;;;19.10;51.24
55460;BME280;41326;45.302;-122.946;2023-03-21T00:40:56;100370.32;;;19.10;51.33
55460;BME280;41326;45.302;-122.946;2023-03-21T00:43:26;100373.18;;;19.10;51.60
55460;BME280;41326;45.302;-122.946;2023-03-21T00:45:59;100370.67;;;19.06;51.77
55460;BME280;41326;45.302;-122.946;2023-03-21T00:48:27;100372.59;;;18.98;52.12
55460;BME280;41326;45.302;-122.946;2023-03-21T00:50:58;100373.67;;;18.89;52.31
55460;BME280;41326;45.302;-122.946;2023-03-21T00:53:29;100380.42;;;18.86;52.36
55460;BME280;41326;45.302;-122.946;2023-03-21T00:55:59;100378.52;;;18.86;52.50
55460;BME280;41326;45.302;-122.946;2023-03-21T00:58:34;100378.60;;;18.83;52.60
55460;BME280;41326;45.302;-122.946;2023-03-21T01:00:59;100380.99;;;18.83;52.77
55460;BME280;41326;45.302;-122.946;2023-03-21T01:03:29;100381.28;;;18.94;52.78
55460;BME280;41326;45.302;-122.946;2023-03-21T01:06:00;100377.91;;;19.05;52.81
55460;BME280;41326;45.302;-122.946;2023-03-21T01:08:31;100380.56;;;19.08;53.20
55460;BME280;41326;45.302;-122.946;2023-03-21T01:11:02;100382.20;;;19.09;53.78
55460;BME280;41326;45.302;-122.946;2023-03-21T01:13:31;100389.01;;;19.05;55.01
55460;BME280;41326;45.302;-122.946;2023-03-21T01:16:02;100391.57;;;19.06;55.24
55460;BME280;41326;45.302;-122.946;2023-03-21T01:18:34;100391.79;;;19.07;54.87
55460;BME280;41326;45.302;-122.946;2023-03-21T01:21:05;100392.85;;;19.04;54.71
55460;BME280;41326;45.302;-122.946;2023-03-21T01:23:34;100394.70;;;19.09;54.69
55460;BME280;41326;45.302;-122.946;2023-03-21T01:26:04;100399.90;;;19.10;55.18
55460;BME280;41326;45.302;-122.946;2023-03-21T01:28:34;100397.19;;;19.10;55.38
55460;BME280;41326;45.302;-122.946;2023-03-21T01:31:05;100398.87;;;19.08;55.51
55460;BME280;41326;45.302;-122.946;2023-03-21T01:33:35;100402.84;;;19.04;55.72
55460;BME280;41326;45.302;-122.946;2023-03-21T01:36:06;100405.53;;;19.06;55.54
55460;BME280;41326;45.302;-122.946;2023-03-21T01:38:36;100407.34;;;19.06;55.45
55460;BME280;41326;45.302;-122.946;2023-03-21T01:41:08;100404.78;;;19.03;55.22
55460;BME280;41326;45.302;-122.946;2023-03-21T01:43:37;100408.62;;;19.02;55.61
55460;BME280;41326;45.302;-122.946;2023-03-21T01:48:38;100416.81;;;19.00;56.05
55460;BME280;41326;45.302;-122.946;2023-03-21T01:51:08;100417.77;;;19.00;56.39
55460;BME280;41326;45.302;-122.946;2023-03-21T01:53:38;100421.04;;;18.96;56.50
55460;BME280;41326;45.302;-122.946;2023-03-21T01:56:10;100423.36;;;18.93;56.53
55460;BME280;41326;45.302;-122.946;2023-03-21T01:58:38;100426.00;;;18.96;55.67
55460;BME280;41326;45.302;-122.946;2023-03-21T02:01:08;100429.05;;;18.93;55.22
55460;BME280;41326;45.302;-122.946;2023-03-21T02:03:38;100429.92;;;18.93;54.87
55460;BME280;41326;45.302;-122.946;2023-03-21T02:06:12;100435.23;;;18.89;54.63
55460;BME280;41326;45.302;-122.946;2023-03-21T02:08:38;100436.79;;;18.85;54.63
55460;BME280;41326;45.302;-122.946;2023-03-21T02:11:09;100441.37;;;18.83;54.56
55460;BME280;41326;45.302;-122.946;2023-03-21T02:13:42;100443.26;;;18.79;54.66
55460;BME280;41326;45.302;-122.946;2023-03-21T02:16:16;100443.19;;;18.78;54.57
55460;BME280;41326;45.302;-122.946;2023-03-21T02:18:44;100442.27;;;18.74;54.34
55460;BME280;41326;45.302;-122.946;2023-03-21T02:28:45;100453.42;;;18.73;53.25
55460;BME280;41326;45.302;-122.946;2023-03-21T02:31:22;100450.81;;;18.83;52.93
55460;BME280;41326;45.302;-122.946;2023-03-21T02:33:51;100453.94;;;18.82;52.87
55460;BME280;41326;45.302;-122.946;2023-03-21T02:36:23;100455.02;;;18.79;52.86
55460;BME280;41326;45.302;-122.946;2023-03-21T02:38:45;100460.09;;;18.77;52.77
55460;BME280;41326;45.302;-122.946;2023-03-21T02:41:17;100460.25;;;18.77;52.69
55460;BME280;41326;45.302;-122.946;2023-03-21T02:43:46;100466.21;;;18.73;52.71
55460;BME280;41326;45.302;-122.946;2023-03-21T02:46:16;100466.97;;;18.69;52.76
55460;BME280;41326;45.302;-122.946;2023-03-21T02:48:46;100466.64;;;18.66;52.78
55460;BME280;41326;45.302;-122.946;2023-03-21T02:51:16;100469.91;;;18.62;52.83
55460;BME280;41326;45.302;-122.946;2023-03-21T02:53:46;100468.86;;;18.58;52.88
55460;BME280;41326;45.302;-122.946;2023-03-21T02:56:15;100473.45;;;18.58;52.73
55460;BME280;41326;45.302;-122.946;2023-03-21T02:58:47;100477.01;;;18.55;52.82
55460;BME280;41326;45.302;-122.946;2023-03-21T03:01:15;100483.86;;;18.64;52.30
55460;BME280;41326;45.302;-122.946;2023-03-21T03:03:45;100485.62;;;18.74;52.02
55460;BME280;41326;45.302;-122.946;2023-03-21T03:06:21;100490.72;;;18.80;51.70
55460;BME280;41326;45.302;-122.946;2023-03-21T03:08:54;100496.37;;;18.76;51.53
55460;BME280;41326;45.302;-122.946;2023-03-21T03:11:26;100498.64;;;18.70;51.59
55460;BME280;41326;45.302;-122.946;2023-03-21T03:13:59;100504.46;;;18.63;51.56
55460;BME280;41326;45.302;-122.946;2023-03-21T03:16:25;100508.55;;;18.66;51.42
55460;BME280;41326;45.302;-122.946;2023-03-21T03:18:54;100508.49;;;18.72;51.04
55460;BME280;41326;45.302;-122.946;2023-03-21T03:21:24;100509.59;;;18.80;50.86
55460;BME280;41326;45.302;-122.946;2023-03-21T03:23:50;100509.24;;;18.79;51.21
55460;BME280;41326;45.302;-122.946;2023-03-21T03:26:22;100507.24;;;18.77;51.45
55460;BME280;41326;45.302;-122.946;2023-03-21T03:28:51;100511.73;;;18.76;51.71
55460;BME280;41326;45.302;-122.946;2023-03-21T03:31:22;100511.29;;;18.72;52.00
55460;BME280;41326;45.302;-122.946;2023-03-21T03:33:52;100511.63;;;18.72;52.12
55460;BME280;41326;45.302;-122.946;2023-03-21T03:36:22;100514.17;;;18.69;52.30
55460;BME280;41326;45.302;-122.946;2023-03-21T03:38:50;100518.73;;;18.71;52.28
55460;BME280;41326;45.302;-122.946;2023-03-21T03:41:24;100519.68;;;18.68;52.36
55460;BME280;41326;45.302;-122.946;2023-03-21T03:43:54;100524.33;;;18.66;52.57
55460;BME280;41326;45.302;-122.946;2023-03-21T03:46:24;100524.25;;;18.64;52.68
55460;BME280;41326;45.302;-122.946;2023-03-21T03:48:55;100526.55;;;18.61;52.82
55460;BME280;41326;45.302;-122.946;2023-03-21T03:51:23;100527.51;;;18.59;52.94
55460;BME280;41326;45.302;-122.946;2023-03-21T03:53:56;100528.43;;;18.58;52.99
55460;BME280;41326;45.302;-122.946;2023-03-21T03:56:21;100527.71;;;18.56;53.06
55460;BME280;41326;45.302;-122.946;2023-03-21T03:58:53;100525.51;;;18.54;53.11
55460;BME280;41326;45.302;-122.946;2023-03-21T04:01:23;100525.21;;;18.54;52.99
55460;BME280;41326;45.302;-122.946;2023-03-21T04:03:53;100527.19;;;18.49;53.26
55460;BME280;41326;45.302;-122.946;2023-03-21T04:06:24;100525.99;;;18.48;53.46
55460;BME280;41326;45.302;-122.946;2023-03-21T04:08:53;100529.10;;;18.48;53.51
55460;BME280;41326;45.302;-122.946;2023-03-21T04:11:23;100528.94;;;18.49;53.47
55460;BME280;41326;45.302;-122.946;2023-03-21T04:13:54;100532.59;;;18.50;53.47
55460;BME280;41326;45.302;-122.946;2023-03-21T04:16:24;100535.50;;;18.47;53.54
55460;BME280;41326;45.302;-122.946;2023-03-21T04:18:55;100540.01;;;18.49;53.45
55460;BME280;41326;45.302;-122.946;2023-03-21T04:21:25;100542.60;;;18.45;53.54
55460;BME280;41326;45.302;-122.946;2023-03-21T04:23:55;100543.86;;;18.44;53.55
55460;BME280;41326;45.302;-122.946;2023-03-21T04:26:26;100543.57;;;18.41;53.67
55460;BME280;41326;45.302;-122.946;2023-03-21T04:28:57;100544.26;;;18.38;53.80
55460;BME280;41326;45.302;-122.946;2023-03-21T04:31:27;100546.51;;;18.40;53.68
55460;BME280;41326;45.302;-122.946;2023-03-21T04:33:57;100548.64;;;18.38;53.74
55460;BME280;41326;45.302;-122.946;2023-03-21T04:36:27;100553.00;;;18.39;53.66
55460;BME280;41326;45.302;-122.946;2023-03-21T04:38:57;100553.24;;;18.35;53.78
55460;BME280;41326;45.302;-122.946;2023-03-21T04:42:38;100548.84;;;18.30;53.93
55460;BME280;41326;45.302;-122.946;2023-03-21T04:45:08;100548.73;;;18.26;54.15
55460;BME280;41326;45.302;-122.946;2023-03-21T04:47:37;100547.36;;;18.24;54.24
55460;BME280;41326;45.302;-122.946;2023-03-21T04:50:09;100547.20;;;18.21;54.30
55460;BME280;41326;45.302;-122.946;2023-03-21T04:52:38;100547.49;;;18.19;54.33
55460;BME280;41326;45.302;-122.946;2023-03-21T04:55:09;100545.71;;;18.17;54.38
55460;BME280;41326;45.302;-122.946;2023-03-21T04:57:39;100542.60;;;18.18;54.28
55460;BME280;41326;45.302;-122.946;2023-03-21T05:00:12;100541.86;;;18.17;54.21
55460;BME280;41326;45.302;-122.946;2023-03-21T05:02:40;100543.94;;;18.16;54.27
55460;BME280;41326;45.302;-122.946;2023-03-21T05:05:10;100542.65;;;18.11;54.57
55460;BME280;41326;45.302;-122.946;2023-03-21T05:07:40;100544.46;;;18.11;54.57
55460;BME280;41326;45.302;-122.946;2023-03-21T05:10:12;100543.33;;;18.04;54.79
55460;BME280;41326;45.302;-122.946;2023-03-21T05:12:41;100542.22;;;18.05;54.74
55460;BME280;41326;45.302;-122.946;2023-03-21T05:15:13;100541.74;;;18.02;54.83
55460;BME280;41326;45.302;-122.946;2023-03-21T05:17:42;100540.22;;;18.04;54.69
55460;BME280;41326;45.302;-122.946;2023-03-21T05:20:15;100538.54;;;18.07;54.55
55460;BME280;41326;45.302;-122.946;2023-03-21T05:22:43;100540.24;;;18.01;54.78
55460;BME280;41326;45.302;-122.946;2023-03-21T05:25:14;100538.14;;;17.93;55.06
55460;BME280;41326;45.302;-122.946;2023-03-21T05:27:44;100539.07;;;17.95;54.98
55460;BME280;41326;45.302;-122.946;2023-03-21T05:30:17;100538.34;;;17.94;55.01
55460;BME280;41326;45.302;-122.946;2023-03-21T05:32:45;100541.29;;;17.88;55.19
55460;BME280;41326;45.302;-122.946;2023-03-21T05:35:15;100541.63;;;17.88;55.15
55460;BME280;41326;45.302;-122.946;2023-03-21T05:37:46;100546.17;;;17.88;55.09
55460;BME280;41326;45.302;-122.946;2023-03-21T05:40:17;100550.08;;;17.88;54.94
55460;BME280;41326;45.302;-122.946;2023-03-21T05:42:45;100552.55;;;17.88;54.90
55460;BME280;41326;45.302;-122.946;2023-03-21T05:45:17;100550.98;;;17.87;54.93
55460;BME280;41326;45.302;-122.946;2023-03-21T05:47:46;100548.32;;;17.83;55.04
55460;BME280;41326;45.302;-122.946;2023-03-21T05:50:17;100549.24;;;17.81;55.03
55460;BME280;41326;45.302;-122.946;2023-03-21T05:52:47;100548.49;;;17.79;55.02
55460;BME280;41326;45.302;-122.946;2023-03-21T05:55:17;100553.79;;;17.78;54.98
55460;BME280;41326;45.302;-122.946;2023-03-21T05:57:47;100554.97;;;17.75;54.97
55460;BME280;41326;45.302;-122.946;2023-03-21T06:00:18;100555.76;;;17.75;54.88
55460;BME280;41326;45.302;-122.946;2023-03-21T06:02:48;100560.11;;;17.72;54.96
55460;BME280;41326;45.302;-122.946;2023-03-21T06:05:18;100561.77;;;17.69;55.08
55460;BME280;41326;45.302;-122.946;2023-03-21T06:07:48;100562.69;;;17.70;55.05
55460;BME280;41326;45.302;-122.946;2023-03-21T06:10:26;100568.28;;;17.69;55.01
55460;BME280;41326;45.302;-122.946;2023-03-21T06:12:49;100568.35;;;17.67;55.04
55460;BME280;41326;45.302;-122.946;2023-03-21T06:15:20;100566.66;;;17.65;55.05
55460;BME280;41326;45.302;-122.946;2023-03-21T06:17:50;100566.43;;;17.65;54.97
55460;BME280;41326;45.302;-122.946;2023-03-21T06:20:20;100562.76;;;17.63;54.91
55460;BME280;41326;45.302;-122.946;2023-03-21T06:22:51;100565.40;;;17.61;54.99
55460;BME280;41326;45.302;-122.946;2023-03-21T06:25:21;100567.24;;;17.57;55.13
55460;BME280;41326;45.302;-122.946;2023-03-21T06:27:51;100573.74;;;17.55;55.19
55460;BME280;41326;45.302;-122.946;2023-03-21T06:30:21;100574.18;;;17.54;55.22
55460;BME280;41326;45.302;-122.946;2023-03-21T06:32:52;100571.02;;;17.53;55.23
55460;BME280;41326;45.302;-122.946;2023-03-21T06:35:22;100570.18;;;17.52;55.26
55460;BME280;41326;45.302;-122.946;2023-03-21T06:37:52;100570.64;;;17.53;55.29
55460;BME280;41326;45.302;-122.946;2023-03-21T06:40:23;100567.12;;;17.51;55.26
55460;BME280;41326;45.302;-122.946;2023-03-21T06:42:53;100565.60;;;17.50;55.30
55460;BME280;41326;45.302;-122.946;2023-03-21T06:45:24;100562.21;;;17.46;55.46
55460;BME280;41326;45.302;-122.946;2023-03-21T06:47:54;100559.44;;;17.44;55.48
55460;BME280;41326;45.302;-122.946;2023-03-21T06:50:24;100556.57;;;17.42;55.55
55460;BME280;41326;45.302;-122.946;2023-03-21T06:52:55;100554.95;;;17.43;55.49
55460;BME280;41326;45.302;-122.946;2023-03-21T06:55:25;100553.08;;;17.36;55.75
55460;BME280;41326;45.302;-122.946;2023-03-21T06:57:55;100550.43;;;17.39;55.48
55460;BME280;41326;45.302;-122.946;2023-03-21T07:00:27;100544.30;;;17.35;55.53
55460;BME280;41326;45.302;-122.946;2023-03-21T07:02:57;100540.47;;;17.35;55.56
55460;BME280;41326;45.302;-122.946;2023-03-21T07:05:27;100537.72;;;17.30;55.72
55460;BME280;41326;45.302;-122.946;2023-03-21T07:07:57;100539.43;;;17.32;55.71
55460;BME280;41326;45.302;-122.946;2023-03-21T07:10:28;100535.84;;;17.31;55.82
55460;BME280;41326;45.302;-122.946;2023-03-21T07:12:59;100539.78;;;17.27;55.91
55460;BME280;41326;45.302;-122.946;2023-03-21T07:15:30;100538.04;;;17.27;55.83
55460;BME280;41326;45.302;-122.946;2023-03-21T07:17:59;100535.66;;;17.25;55.89
55460;BME280;41326;45.302;-122.946;2023-03-21T07:20:29;100533.53;;;17.23;55.99
55460;BME280;41326;45.302;-122.946;2023-03-21T07:22:59;100529.04;;;17.21;56.05
55460;BME280;41326;45.302;-122.946;2023-03-21T07:25:30;100525.10;;;17.21;56.10
55460;BME280;41326;45.302;-122.946;2023-03-21T07:28:00;100526.48;;;17.20;56.21
55460;BME280;41326;45.302;-122.946;2023-03-21T07:30:30;100526.87;;;17.18;56.27
55460;BME280;41326;45.302;-122.946;2023-03-21T07:33:01;100526.28;;;17.16;56.32
55460;BME280;41326;45.302;-122.946;2023-03-21T07:35:31;100526.26;;;17.11;56.52
55460;BME280;41326;45.302;-122.946;2023-03-21T07:38:01;100524.19;;;17.14;56.29
55460;BME280;41326;45.302;-122.946;2023-03-21T07:40:32;100522.77;;;17.09;56.42
55460;BME280;41326;45.302;-122.946;2023-03-21T07:43:03;100519.60;;;17.09;56.31
55460;BME280;41326;45.302;-122.946;2023-03-21T07:45:33;100512.84;;;17.10;56.24
55460;BME280;41326;45.302;-122.946;2023-03-21T07:48:03;100514.14;;;17.05;56.38
55460;BME280;41326;45.302;-122.946;2023-03-21T07:50:33;100511.54;;;17.04;56.48
55460;BME280;41326;45.302;-122.946;2023-03-21T07:53:04;100510.25;;;17.02;56.52
55460;BME280;41326;45.302;-122.946;2023-03-21T07:55:35;100507.01;;;17.01;56.67
55460;BME280;41326;45.302;-122.946;2023-03-21T07:58:05;100508.31;;;16.98;56.79
55460;BME280;41326;45.302;-122.946;2023-03-21T08:00:35;100504.86;;;16.97;56.66
55460;BME280;41326;45.302;-122.946;2023-03-21T08:03:06;100503.14;;;16.94;56.68
55460;BME280;41326;45.302;-122.946;2023-03-21T08:05:38;100499.45;;;16.93;56.71
55460;BME280;41326;45.302;-122.946;2023-03-21T08:08:07;100501.10;;;16.92;56.69
55460;BME280;41326;45.302;-122.946;2023-03-21T08:10:37;100504.41;;;16.90;56.76
55460;BME280;41326;45.302;-122.946;2023-03-21T08:13:08;100500.72;;;16.89;56.73
55460;BME280;41326;45.302;-122.946;2023-03-21T08:15:38;100499.70;;;16.89;56.66
55460;BME280;41326;45.302;-122.946;2023-03-21T08:18:09;100499.24;;;16.88;56.62
55460;BME280;41326;45.302;-122.946;2023-03-21T08:20:41;100500.73;;;16.88;56.54
55460;BME280;41326;45.302;-122.946;2023-03-21T08:23:09;100499.85;;;16.85;56.65
55460;BME280;41326;45.302;-122.946;2023-03-21T08:25:39;100496.11;;;16.83;56.77
55460;BME280;41326;45.302;-122.946;2023-03-21T08:28:09;100499.07;;;16.82;56.86
55460;BME280;41326;45.302;-122.946;2023-03-21T08:30:40;100500.67;;;16.83;56.73
55460;BME280;41326;45.302;-122.946;2023-03-21T08:33:11;100497.89;;;16.76;56.96
55460;BME280;41326;45.302;-122.946;2023-03-21T08:35:41;100498.48;;;16.78;56.90
55460;BME280;41326;45.302;-122.946;2023-03-21T08:38:12;100497.24;;;16.77;56.76
55460;BME280;41326;45.302;-122.946;2023-03-21T08:40:42;100500.81;;;16.74;56.78
55460;BME280;41326;45.302;-122.946;2023-03-21T08:43:13;100498.51;;;16.73;56.69
55460;BME280;41326;45.302;-122.946;2023-03-21T08:45:42;100496.27;;;16.72;56.85
55460;BME280;41326;45.302;-122.946;2023-03-21T08:48:13;100498.07;;;16.74;56.80
55460;BME280;41326;45.302;-122.946;2023-03-21T08:50:43;100496.29;;;16.69;56.92
55460;BME280;41326;45.302;-122.946;2023-03-21T08:53:13;100498.88;;;16.68;56.90
55460;BME280;41326;45.302;-122.946;2023-03-21T08:55:44;100497.10;;;16.68;56.79
55460;BME280;41326;45.302;-122.946;2023-03-21T08:58:14;100498.16;;;16.68;56.59
55460;BME280;41326;45.302;-122.946;2023-03-21T09:00:45;100501.17;;;16.70;56.44
55460;BME280;41326;45.302;-122.946;2023-03-21T09:03:15;100508.01;;;16.69;56.39
55460;BME280;41326;45.302;-122.946;2023-03-21T09:05:45;100513.20;;;16.65;56.56
55460;BME280;41326;45.302;-122.946;2023-03-21T09:08:15;100512.77;;;16.66;56.49
55460;BME280;41326;45.302;-122.946;2023-03-21T09:10:45;100513.52;;;16.66;56.43
55460;BME280;41326;45.302;-122.946;2023-03-21T09:13:16;100508.32;;;16.64;56.49
55460;BME280;41326;45.302;-122.946;2023-03-21T09:15:46;100506.06;;;16.61;56.63
55460;BME280;41326;45.302;-122.946;2023-03-21T09:18:17;100501.29;;;16.59;56.60
55460;BME280;41326;45.302;-122.946;2023-03-21T09:20:50;100499.73;;;16.57;56.42
55460;BME280;41326;45.302;-122.946;2023-03-21T09:23:18;100499.02;;;16.57;56.59
55460;BME280;41326;45.302;-122.946;2023-03-21T09:25:50;100495.86;;;16.54;56.78
55460;BME280;41326;45.302;-122.946;2023-03-21T09:28:18;100491.62;;;16.51;56.77
55460;BME280;41326;45.302;-122.946;2023-03-21T09:30:49;100487.87;;;16.52;56.73
55460;BME280;41326;45.302;-122.946;2023-03-21T09:33:19;100480.17;;;16.50;56.72
55460;BME280;41326;45.302;-122.946;2023-03-21T09:35:49;100479.17;;;16.48;56.70
55460;BME280;41326;45.302;-122.946;2023-03-21T09:38:20;100482.06;;;16.45;56.59
55460;BME280;41326;45.302;-122.946;2023-03-21T09:41:02;100481.26;;;16.40;56.69
55460;BME280;41326;45.302;-122.946;2023-03-21T09:43:32;100484.65;;;16.41;56.59
55460;BME280;41326;45.302;-122.946;2023-03-21T09:45:57;100486.33;;;16.37;56.67
55460;BME280;41326;45.302;-122.946;2023-03-21T09:48:27;100484.45;;;16.32;56.83
55460;BME280;41326;45.302;-122.946;2023-03-21T09:50:52;100485.28;;;16.34;56.79
55460;BME280;41326;45.302;-122.946;2023-03-21T09:53:28;100479.55;;;16.35;56.77
55460;BME280;41326;45.302;-122.946;2023-03-21T09:55:53;100476.92;;;16.36;56.72
55460;BME280;41326;45.302;-122.946;2023-03-21T09:58:29;100474.89;;;16.36;56.58
55460;BME280;41326;45.302;-122.946;2023-03-21T10:00:57;100472.53;;;16.36;56.52
55460;BME280;41326;45.302;-122.946;2023-03-21T10:03:28;100466.94;;;16.32;56.69
55460;BME280;41326;45.302;-122.946;2023-03-21T10:05:56;100465.27;;;16.31;56.72
55460;BME280;41326;45.302;-122.946;2023-03-21T10:08:29;100461.81;;;16.31;56.73
55460;BME280;41326;45.302;-122.946;2023-03-21T10:10:59;100458.80;;;16.28;56.78
55460;BME280;41326;45.302;-122.946;2023-03-21T10:13:30;100457.03;;;16.26;56.85
55460;BME280;41326;45.302;-122.946;2023-03-21T10:16:05;100452.59;;;16.24;56.84
55460;BME280;41326;45.302;-122.946;2023-03-21T10:18:29;100450.05;;;16.21;56.81
55460;BME280;41326;45.302;-122.946;2023-03-21T10:20:58;100445.81;;;16.25;56.56
55460;BME280;41326;45.302;-122.946;2023-03-21T10:23:32;100446.19;;;16.24;56.65
55460;BME280;41326;45.302;-122.946;2023-03-21T10:26:01;100443.92;;;16.23;56.57
55460;BME280;41326;45.302;-122.946;2023-03-21T10:28:30;100440.83;;;16.22;56.63
55460;BME280;41326;45.302;-122.946;2023-03-21T10:31:01;100436.49;;;16.21;56.59
55460;BME280;41326;45.302;-122.946;2023-03-21T10:33:32;100437.58;;;16.19;56.60
55460;BME280;41326;45.302;-122.946;2023-03-21T10:36:03;100434.67;;;16.16;56.63
55460;BME280;41326;45.302;-122.946;2023-03-21T10:38:30;100436.19;;;16.13;56.73
55460;BME280;41326;45.302;-122.946;2023-03-21T10:41:00;100435.34;;;16.15;56.61
55460;BME280;41326;45.302;-122.946;2023-03-21T10:43:34;100429.56;;;16.12;56.64
55460;BME280;41326;45.302;-122.946;2023-03-21T10:46:05;100425.73;;;16.06;56.76
55460;BME280;41326;45.302;-122.946;2023-03-21T10:48:34;100423.12;;;16.09;56.58
55460;BME280;41326;45.302;-122.946;2023-03-21T10:51:01;100421.39;;;16.08;56.55
55460;BME280;41326;45.302;-122.946;2023-03-21T10:53:36;100418.43;;;16.07;56.57
55460;BME280;41326;45.302;-122.946;2023-03-21T10:56:06;100419.41;;;16.06;56.54
55460;BME280;41326;45.302;-122.946;2023-03-21T10:58:35;100415.84;;;16.05;56.58
55460;BME280;41326;45.302;-122.946;2023-03-21T11:01:07;100413.86;;;16.06;56.47
55460;BME280;41326;45.302;-122.946;2023-03-21T11:03:36;100412.50;;;16.04;56.46
55460;BME280;41326;45.302;-122.946;2023-03-21T11:06:07;100412.28;;;16.04;56.44
55460;BME280;41326;45.302;-122.946;2023-03-21T11:08:38;100409.92;;;16.00;56.58
55460;BME280;41326;45.302;-122.946;2023-03-21T11:11:07;100403.22;;;16.01;56.48
55460;BME280;41326;45.302;-122.946;2023-03-21T11:13:39;100403.34;;;15.99;56.53
55460;BME280;41326;45.302;-122.946;2023-03-21T11:16:10;100398.48;;;15.96;56.51
55460;BME280;41326;45.302;-122.946;2023-03-21T11:18:41;100392.41;;;15.93;56.46
55460;BME280;41326;45.302;-122.946;2023-03-21T11:21:09;100387.58;;;15.93;56.37
55460;BME280;41326;45.302;-122.946;2023-03-21T11:23:39;100389.80;;;15.92;56.39
55460;BME280;41326;45.302;-122.946;2023-03-21T11:26:08;100388.37;;;15.88;56.54
55460;BME280;41326;45.302;-122.946;2023-03-21T11:28:39;100393.15;;;15.90;56.46
55460;BME280;41326;45.302;-122.946;2023-03-21T11:31:08;100388.12;;;15.87;56.52
55460;BME280;41326;45.302;-122.946;2023-03-21T11:33:38;100382.97;;;15.87;56.44
55460;BME280;41326;45.302;-122.946;2023-03-21T11:38:41;100376.49;;;15.84;56.35
55460;BME280;41326;45.302;-122.946;2023-03-21T11:41:08;100369.84;;;15.86;56.19
55460;BME280;41326;45.302;-122.946;2023-03-21T11:43:40;100368.17;;;15.85;56.19
55460;BME280;41326;45.302;-122.946;2023-03-21T11:46:12;100364.31;;;15.82;56.29
55460;BME280;41326;45.302;-122.946;2023-03-21T11:48:43;100365.40;;;15.79;56.40
55460;BME280;41326;45.302;-122.946;2023-03-21T11:51:17;100367.12;;;15.76;56.41
55460;BME280;41326;45.302;-122.946;2023-03-21T11:53:44;100368.40;;;15.73;56.45
55460;BME280;41326;45.302;-122.946;2023-03-21T11:56:21;100370.26;;;15.72;56.47
55460;BME280;41326;45.302;-122.946;2023-03-21T11:58:50;100373.18;;;15.71;56.43
55460;BME280;41326;45.302;-122.946;2023-03-21T12:01:15;100366.98;;;15.71;56.44
55460;BME280;41326;45.302;-122.946;2023-03-21T12:03:51;100367.25;;;15.71;56.42
55460;BME280;41326;45.302;-122.946;2023-03-21T12:06:18;100355.17;;;15.66;56.58
55460;BME280;41326;45.302;-122.946;2023-03-21T12:08:47;100357.18;;;15.64;56.56
55460;BME280;41326;45.302;-122.946;2023-03-21T12:11:16;100352.49;;;15.66;56.41
55460;BME280;41326;45.302;-122.946;2023-03-21T12:13:49;100353.23;;;15.64;56.43
55460;BME280;41326;45.302;-122.946;2023-03-21T12:16:20;100353.26;;;15.63;56.44
55460;BME280;41326;45.302;-122.946;2023-03-21T12:21:16;100351.50;;;15.63;56.16
55460;BME280;41326;45.302;-122.946;2023-03-21T12:23:56;100352.09;;;15.60;56.30
55460;BME280;41326;45.302;-122.946;2023-03-21T12:26:20;100358.50;;;15.58;56.37
55460;BME280;41326;45.302;-122.946;2023-03-21T12:28:55;100357.11;;;15.57;56.37
55460;BME280;41326;45.302;-122.946;2023-03-21T12:31:19;100353.64;;;15.58;56.34
55460;BME280;41326;45.302;-122.946;2023-03-21T12:33:55;100348.93;;;15.56;56.33
55460;BME280;41326;45.302;-122.946;2023-03-21T12:36:25;100346.08;;;15.55;56.30
55460;BME280;41326;45.302;-122.946;2023-03-21T12:38:49;100339.34;;;15.53;56.29
55460;BME280;41326;45.302;-122.946;2023-03-21T12:41:22;100337.01;;;15.50;56.27
55460;BME280;41326;45.302;-122.946;2023-03-21T12:43:50;100330.81;;;15.46;56.39
55460;BME280;41326;45.302;-122.946;2023-03-21T12:46:19;100325.96;;;15.46;56.38
55460;BME280;41326;45.302;-122.946;2023-03-21T12:48:49;100319.56;;;15.47;56.31
55460;BME280;41326;45.302;-122.946;2023-03-21T12:51:18;100321.50;;;15.47;56.29